sensor_id;sensor_type;location;lat;lon;timestamp;temperature;humidity
41060;DHT22;26811;53.160;8.202;2024-03-23T00:53:16;6.40;99.90
41060;DHT22;26811;53.160;8.202;2024-03-23T00:58:17;6.40;99.90
41060;DHT22;26811;53.160;8.202;2024-03-23T01:03:17;6.40;99.90
41060;DHT22;26811;53.160;8.202;2024-03-23T01:08:18;6.40;99.90
41060;DHT22;26811;53.160;8.202;2024-03-23T01:13:18;6.30;99.90
41060;DHT22;26811;53.160;8.202;2024-03-23T01:18:23;6.30;99.90
41060;DHT22;26811;53.160;8.202;2024-03-23T01:23:23;6.30;99.90
41060;DHT22;26811;53.160;8.202;2024-03-23T01:28:24;6.30;99.90
41060;DHT22;26811;53.160;8.202;2024-03-23T01:33:24;6.30;99.90
41060;DHT22;26811;53.160;8.202;2024-03-23T01:38:25;6.30;99.90
41060;DHT22;26811;53.160;8.202;2024-03-23T01:43:25;6.30;99.90
41060;DHT22;26811;53.160;8.202;2024-03-23T01:48:26;6.30;99.90
41060;DHT22;26811;53.160;8.202;2024-03-23T01:53:28;6.30;99.90
41060;DHT22;26811;53.160;8.202;2024-03-23T01:58:28;6.30;99.90
41060;DHT22;26811;53.160;8.202;2024-03-23T02:03:29;6.20;99.90
41060;DHT22;26811;53.160;8.202;2024-03-23T02:08:30;6.20;99.90
41060;DHT22;26811;53.160;8.202;2024-03-23T02:13:31;6.20;99.90
41060;DHT22;26811;53.160;8.202;2024-03-23T02:18:33;6.20;99.90
41060;DHT22;26811;53.160;8.202;2024-03-23T02:23:33;6.10;99.90
41060;DHT22;26811;53.160;8.202;2024-03-23T02:28:34;6.10;99.90
41060;DHT22;26811;53.160;8.202;2024-03-23T02:33:34;6.10;99.90
41060;DHT22;26811;53.160;8.202;2024-03-23T02:38:38;6.10;99.90
41060;DHT22;26811;53.160;8.202;2024-03-23T02:43:38;6.10;99.90
41060;DHT22;26811;53.160;8.202;2024-03-23T02:48:39;6.00;99.90
41060;DHT22;26811;53.160;8.202;2024-03-23T02:53:39;6.00;99.90
41060;DHT22;26811;53.160;8.202;2024-03-23T02:58:40;6.00;99.90
41060;DHT22;26811;53.160;8.202;2024-03-23T03:03:40;5.90;99.90
41060;DHT22;26811;53.160;8.202;2024-03-23T03:08:41;5.90;99.90
41060;DHT22;26811;53.160;8.202;2024-03-23T03:13:41;5.90;99.90
41060;DHT22;26811;53.160;8.202;2024-03-23T03:18:42;5.90;99.90
41060;DHT22;26811;53.160;8.202;2024-03-23T03:23:42;5.80;99.90
41060;DHT22;26811;53.160;8.202;2024-03-23T03:28:44;5.80;99.90
41060;DHT22;26811;53.160;8.202;2024-03-23T03:33:50;5.80;99.90
41060;DHT22;26811;53.160;8.202;2024-03-23T03:38:51;5.70;99.90
41060;DHT22;26811;53.160;8.202;2024-03-23T03:43:52;5.80;99.90
41060;DHT22;26811;53.160;8.202;2024-03-23T03:48:52;5.70;99.90
41060;DHT22;26811;53.160;8.202;2024-03-23T03:53:52;5.70;99.90
41060;DHT22;26811;53.160;8.202;2024-03-23T03:58:53;5.60;99.90
41060;DHT22;26811;53.160;8.202;2024-03-23T04:03:54;5.50;99.90
41060;DHT22;26811;53.160;8.202;2024-03-23T04:08:55;5.50;99.90
41060;DHT22;26811;53.160;8.202;2024-03-23T04:13:55;5.40;99.90
41060;DHT22;26811;53.160;8.202;2024-03-23T04:18:56;5.40;99.90
41060;DHT22;26811;53.160;8.202;2024-03-23T04:23:56;5.40;99.90
41060;DHT22;26811;53.160;8.202;2024-03-23T04:28:57;5.30;99.90
41060;DHT22;26811;53.160;8.202;2024-03-23T04:33:57;5.30;99.90
41060;DHT22;26811;53.160;8.202;2024-03-23T04:38:59;5.30;99.90
41060;DHT22;26811;53.160;8.202;2024-03-23T04:44:00;5.20;99.90
41060;DHT22;26811;53.160;8.202;2024-03-23T04:49:00;5.20;99.90
41060;DHT22;26811;53.160;8.202;2024-03-23T04:54:01;5.20;99.90
41060;DHT22;26811;53.160;8.202;2024-03-23T04:59:01;5.10;99.90
41060;DHT22;26811;53.160;8.202;2024-03-23T05:04:04;5.10;99.90
41060;DHT22;26811;53.160;8.202;2024-03-23T05:09:05;5.10;99.90
41060;DHT22;26811;53.160;8.202;2024-03-23T05:14:13;5.00;99.90
41060;DHT22;26811;53.160;8.202;2024-03-23T05:19:14;5.00;99.90
41060;DHT22;26811;53.160;8.202;2024-03-23T05:24:14;5.00;99.90
41060;DHT22;26811;53.160;8.202;2024-03-23T05:29:15;5.00;99.90
41060;DHT22;26811;53.160;8.202;2024-03-23T05:34:18;5.00;99.90
41060;DHT22;26811;53.160;8.202;2024-03-23T05:39:18;4.90;99.90
41060;DHT22;26811;53.160;8.202;2024-03-23T05:44:22;4.90;99.90
41060;DHT22;26811;53.160;8.202;2024-03-23T05:49:22;4.90;99.90
41060;DHT22;26811;53.160;8.202;2024-03-23T05:54:23;4.90;99.90
41060;DHT22;26811;53.160;8.202;2024-03-23T05:59:23;4.90;99.90
41060;DHT22;26811;53.160;8.202;2024-03-23T06:04:24;4.90;99.90
41060;DHT22;26811;53.160;8.202;2024-03-23T06:09:24;5.00;99.90
41060;DHT22;26811;53.160;8.202;2024-03-23T06:14:26;5.00;99.90
41060;DHT22;26811;53.160;8.202;2024-03-23T06:19:27;5.10;99.90
41060;DHT22;26811;53.160;8.202;2024-03-23T06:24:28;5.20;99.90
41060;DHT22;26811;53.160;8.202;2024-03-23T06:29:28;5.20;99.90
41060;DHT22;26811;53.160;8.202;2024-03-23T06:34:29;5.30;99.90
41060;DHT22;26811;53.160;8.202;2024-03-23T06:39:30;5.50;99.90
41060;DHT22;26811;53.160;8.202;2024-03-23T06:44:31;5.50;99.90
41060;DHT22;26811;53.160;8.202;2024-03-23T06:49:31;5.60;99.90
41060;DHT22;26811;53.160;8.202;2024-03-23T06:54:32;5.80;99.90
41060;DHT22;26811;53.160;8.202;2024-03-23T06:59:32;6.00;99.90
41060;DHT22;26811;53.160;8.202;2024-03-23T07:04:33;6.20;99.90
41060;DHT22;26811;53.160;8.202;2024-03-23T07:09:33;6.60;99.90
41060;DHT22;26811;53.160;8.202;2024-03-23T07:14:34;6.80;99.90
41060;DHT22;26811;53.160;8.202;2024-03-23T07:19:34;7.40;99.90
41060;DHT22;26811;53.160;8.202;2024-03-23T07:24:35;8.10;99.90
41060;DHT22;26811;53.160;8.202;2024-03-23T07:29:39;8.80;99.90
41060;DHT22;26811;53.160;8.202;2024-03-23T07:34:39;9.60;99.90
41060;DHT22;26811;53.160;8.202;2024-03-23T07:39:40;9.90;99.90
41060;DHT22;26811;53.160;8.202;2024-03-23T07:44:40;10.70;99.90
41060;DHT22;26811;53.160;8.202;2024-03-23T07:49:44;11.00;99.90
41060;DHT22;26811;53.160;8.202;2024-03-23T07:54:46;11.60;99.90
41060;DHT22;26811;53.160;8.202;2024-03-23T07:59:47;11.80;99.90
41060;DHT22;26811;53.160;8.202;2024-03-23T08:04:48;12.20;99.90
41060;DHT22;26811;53.160;8.202;2024-03-23T08:09:49;12.50;99.90
41060;DHT22;26811;53.160;8.202;2024-03-23T08:14:49;11.80;99.90
41060;DHT22;26811;53.160;8.202;2024-03-23T08:19:50;11.90;99.90
41060;DHT22;26811;53.160;8.202;2024-03-23T08:24:51;12.20;99.90
41060;DHT22;26811;53.160;8.202;2024-03-23T08:29:52;12.20;99.90
41060;DHT22;26811;53.160;8.202;2024-03-23T08:34:52;11.70;99.90
41060;DHT22;26811;53.160;8.202;2024-03-23T08:39:53;11.00;99.90
41060;DHT22;26811;53.160;8.202;2024-03-23T08:44:56;10.30;99.90
41060;DHT22;26811;53.160;8.202;2024-03-23T08:49:57;9.90;99.90
41060;DHT22;26811;53.160;8.202;2024-03-23T08:54:58;9.30;99.90
41060;DHT22;26811;53.160;8.202;2024-03-23T09:00:02;9.80;99.90
41060;DHT22;26811;53.160;8.202;2024-03-23T09:05:03;10.50;99.90
41060;DHT22;26811;53.160;8.202;2024-03-23T09:10:07;10.60;99.90
41060;DHT22;26811;53.160;8.202;2024-03-23T09:15:08;10.30;99.90
41060;DHT22;26811;53.160;8.202;2024-03-23T09:20:09;10.20;99.90
41060;DHT22;26811;53.160;8.202;2024-03-23T09:25:10;10.30;99.90
41060;DHT22;26811;53.160;8.202;2024-03-23T09:30:11;9.90;99.90
41060;DHT22;26811;53.160;8.202;2024-03-23T09:35:12;10.80;99.90
41060;DHT22;26811;53.160;8.202;2024-03-23T09:40:12;11.60;99.90
41060;DHT22;26811;53.160;8.202;2024-03-23T09:45:27;12.10;99.90
41060;DHT22;26811;53.160;8.202;2024-03-23T09:50:28;11.80;99.90
41060;DHT22;26811;53.160;8.202;2024-03-23T09:55:46;11.20;99.90
41060;DHT22;26811;53.160;8.202;2024-03-23T10:00:47;11.00;99.90
41060;DHT22;26811;53.160;8.202;2024-03-23T10:06:03;10.70;99.90
41060;DHT22;26811;53.160;8.202;2024-03-23T10:11:15;10.40;99.90
41060;DHT22;26811;53.160;8.202;2024-03-23T10:16:23;10.90;99.90
41060;DHT22;26811;53.160;8.202;2024-03-23T10:21:24;10.70;99.90
41060;DHT22;26811;53.160;8.202;2024-03-23T10:26:25;11.00;99.90
41060;DHT22;26811;53.160;8.202;2024-03-23T10:31:30;10.90;99.90
41060;DHT22;26811;53.160;8.202;2024-03-23T10:36:31;11.00;99.90
41060;DHT22;26811;53.160;8.202;2024-03-23T10:41:32;11.40;99.90
41060;DHT22;26811;53.160;8.202;2024-03-23T10:46:35;11.00;99.90
41060;DHT22;26811;53.160;8.202;2024-03-23T10:51:37;10.90;99.90
41060;DHT22;26811;53.160;8.202;2024-03-23T10:56:39;11.20;99.90
41060;DHT22;26811;53.160;8.202;2024-03-23T11:01:56;11.70;99.90
41060;DHT22;26811;53.160;8.202;2024-03-23T11:06:57;11.20;99.90
41060;DHT22;26811;53.160;8.202;2024-03-23T11:11:58;11.20;99.90
41060;DHT22;26811;53.160;8.202;2024-03-23T11:17:10;11.30;99.90
41060;DHT22;26811;53.160;8.202;2024-03-23T11:22:14;11.70;99.90
41060;DHT22;26811;53.160;8.202;2024-03-23T11:27:17;11.30;99.90
41060;DHT22;26811;53.160;8.202;2024-03-23T11:32:18;10.90;99.90
41060;DHT22;26811;53.160;8.202;2024-03-23T11:37:18;10.60;99.90
41060;DHT22;26811;53.160;8.202;2024-03-23T11:42:19;10.60;99.90
41060;DHT22;26811;53.160;8.202;2024-03-23T11:47:21;10.60;99.90
41060;DHT22;26811;53.160;8.202;2024-03-23T11:52:22;9.30;99.90
41060;DHT22;26811;53.160;8.202;2024-03-23T11:57:22;8.20;99.90
41060;DHT22;26811;53.160;8.202;2024-03-23T12:02:23;7.00;99.90
41060;DHT22;26811;53.160;8.202;2024-03-23T12:07:24;6.30;99.90
41060;DHT22;26811;53.160;8.202;2024-03-23T12:12:24;5.80;99.90
41060;DHT22;26811;53.160;8.202;2024-03-23T12:17:25;6.20;99.90
41060;DHT22;26811;53.160;8.202;2024-03-23T12:22:26;7.20;99.90
41060;DHT22;26811;53.160;8.202;2024-03-23T12:27:27;7.70;99.90
41060;DHT22;26811;53.160;8.202;2024-03-23T12:32:27;8.20;99.90
41060;DHT22;26811;53.160;8.202;2024-03-23T12:37:28;8.40;99.90
41060;DHT22;26811;53.160;8.202;2024-03-23T12:42:28;8.40;99.90
41060;DHT22;26811;53.160;8.202;2024-03-23T12:47:30;8.60;99.90
41060;DHT22;26811;53.160;8.202;2024-03-23T12:52:31;8.50;99.90
41060;DHT22;26811;53.160;8.202;2024-03-23T12:57:32;7.90;99.90
41060;DHT22;26811;53.160;8.202;2024-03-23T13:02:33;6.90;99.90
41060;DHT22;26811;53.160;8.202;2024-03-23T13:07:35;6.60;99.90
41060;DHT22;26811;53.160;8.202;2024-03-23T13:12:36;7.10;99.90
41060;DHT22;26811;53.160;8.202;2024-03-23T13:17:37;7.80;99.90
41060;DHT22;26811;53.160;8.202;2024-03-23T13:22:37;8.20;99.90
41060;DHT22;26811;53.160;8.202;2024-03-23T13:27:38;8.30;99.90
41060;DHT22;26811;53.160;8.202;2024-03-23T13:32:38;8.20;99.90
41060;DHT22;26811;53.160;8.202;2024-03-23T13:37:39;8.20;99.90
41060;DHT22;26811;53.160;8.202;2024-03-23T13:42:39;8.00;99.90
41060;DHT22;26811;53.160;8.202;2024-03-23T13:47:40;7.60;99.90
41060;DHT22;26811;53.160;8.202;2024-03-23T13:52:40;7.50;99.90
41060;DHT22;26811;53.160;8.202;2024-03-23T13:57:43;7.60;99.90
41060;DHT22;26811;53.160;8.202;2024-03-23T14:02:44;7.60;99.90
41060;DHT22;26811;53.160;8.202;2024-03-23T14:07:45;7.70;99.90
41060;DHT22;26811;53.160;8.202;2024-03-23T14:12:45;7.60;99.90
41060;DHT22;26811;53.160;8.202;2024-03-23T14:17:46;7.80;99.90
41060;DHT22;26811;53.160;8.202;2024-03-23T14:22:46;8.00;99.90
41060;DHT22;26811;53.160;8.202;2024-03-23T14:27:47;8.00;99.90
41060;DHT22;26811;53.160;8.202;2024-03-23T14:32:48;7.70;99.90
41060;DHT22;26811;53.160;8.202;2024-03-23T14:37:48;8.00;99.90
41060;DHT22;26811;53.160;8.202;2024-03-23T14:42:49;8.30;99.90
41060;DHT22;26811;53.160;8.202;2024-03-23T14:47:50;8.30;99.90
41060;DHT22;26811;53.160;8.202;2024-03-23T14:52:51;8.10;99.90
41060;DHT22;26811;53.160;8.202;2024-03-23T14:57:52;8.00;99.90
41060;DHT22;26811;53.160;8.202;2024-03-23T15:02:52;7.80;99.90
41060;DHT22;26811;53.160;8.202;2024-03-23T15:07:53;7.80;99.90
41060;DHT22;26811;53.160;8.202;2024-03-23T15:12:53;7.80;99.90
41060;DHT22;26811;53.160;8.202;2024-03-23T15:17:54;7.90;99.90
41060;DHT22;26811;53.160;8.202;2024-03-23T15:22:57;8.00;99.90
41060;DHT22;26811;53.160;8.202;2024-03-23T15:27:58;8.40;99.90
41060;DHT22;26811;53.160;8.202;2024-03-23T15:33:00;8.70;99.90
41060;DHT22;26811;53.160;8.202;2024-03-23T15:38:00;8.70;99.90
41060;DHT22;26811;53.160;8.202;2024-03-23T15:43:01;8.30;99.90
41060;DHT22;26811;53.160;8.202;2024-03-23T15:48:01;7.50;99.90
41060;DHT22;26811;53.160;8.202;2024-03-23T15:53:02;6.80;99.90
41060;DHT22;26811;53.160;8.202;2024-03-23T15:58:03;6.20;99.90
41060;DHT22;26811;53.160;8.202;2024-03-23T16:03:04;6.00;99.90
41060;DHT22;26811;53.160;8.202;2024-03-23T16:08:04;6.00;99.90
41060;DHT22;26811;53.160;8.202;2024-03-23T16:13:06;6.10;99.90
41060;DHT22;26811;53.160;8.202;2024-03-23T16:18:10;6.00;99.90
41060;DHT22;26811;53.160;8.202;2024-03-23T16:23:11;5.90;99.90
41060;DHT22;26811;53.160;8.202;2024-03-23T16:28:11;5.90;99.90
41060;DHT22;26811;53.160;8.202;2024-03-23T16:33:12;5.90;99.90
41060;DHT22;26811;53.160;8.202;2024-03-23T16:38:12;6.00;99.90
41060;DHT22;26811;53.160;8.202;2024-03-23T16:43:13;5.90;99.90
41060;DHT22;26811;53.160;8.202;2024-03-23T16:48:13;6.00;99.90
41060;DHT22;26811;53.160;8.202;2024-03-23T16:53:14;6.00;99.90
41060;DHT22;26811;53.160;8.202;2024-03-23T16:58:15;6.00;99.90
41060;DHT22;26811;53.160;8.202;2024-03-23T17:03:15;6.10;99.90
41060;DHT22;26811;53.160;8.202;2024-03-23T17:08:16;6.10;99.90
41060;DHT22;26811;53.160;8.202;2024-03-23T17:13:17;6.10;99.90
41060;DHT22;26811;53.160;8.202;2024-03-23T17:18:17;6.10;99.90
41060;DHT22;26811;53.160;8.202;2024-03-23T17:23:28;6.00;99.90
41060;DHT22;26811;53.160;8.202;2024-03-23T17:28:29;6.00;99.90
41060;DHT22;26811;53.160;8.202;2024-03-23T17:33:29;6.00;99.90
41060;DHT22;26811;53.160;8.202;2024-03-23T17:38:30;5.90;99.90
41060;DHT22;26811;53.160;8.202;2024-03-23T17:43:31;5.80;99.90
41060;DHT22;26811;53.160;8.202;2024-03-23T17:48:57;5.70;99.90
41060;DHT22;26811;53.160;8.202;2024-03-23T17:54:12;5.60;99.90
41060;DHT22;26811;53.160;8.202;2024-03-23T17:59:16;5.60;99.90
41060;DHT22;26811;53.160;8.202;2024-03-23T18:04:16;5.50;99.90
41060;DHT22;26811;53.160;8.202;2024-03-23T18:09:21;5.40;99.90
41060;DHT22;26811;53.160;8.202;2024-03-23T18:14:24;5.30;99.90
41060;DHT22;26811;53.160;8.202;2024-03-23T18:19:31;5.20;99.90
41060;DHT22;26811;53.160;8.202;2024-03-23T18:29:57;5.10;99.90
41060;DHT22;26811;53.160;8.202;2024-03-23T18:34:57;5.10;99.90
41060;DHT22;26811;53.160;8.202;2024-03-23T18:39:58;5.00;99.90
41060;DHT22;26811;53.160;8.202;2024-03-23T18:44:58;5.00;99.90
41060;DHT22;26811;53.160;8.202;2024-03-23T18:49:59;5.00;99.90
41060;DHT22;26811;53.160;8.202;2024-03-23T18:54:59;4.90;99.90
41060;DHT22;26811;53.160;8.202;2024-03-23T19:00:00;4.90;99.90
41060;DHT22;26811;53.160;8.202;2024-03-23T19:05:01;4.90;99.90
41060;DHT22;26811;53.160;8.202;2024-03-23T19:10:01;4.80;99.90
41060;DHT22;26811;53.160;8.202;2024-03-23T19:15:03;4.80;99.90
41060;DHT22;26811;53.160;8.202;2024-03-23T19:20:05;4.80;99.90
41060;DHT22;26811;53.160;8.202;2024-03-23T19:25:09;4.80;99.90
41060;DHT22;26811;53.160;8.202;2024-03-23T19:30:10;4.70;99.90
41060;DHT22;26811;53.160;8.202;2024-03-23T19:35:10;4.60;99.90
41060;DHT22;26811;53.160;8.202;2024-03-23T19:40:11;4.60;99.90
41060;DHT22;26811;53.160;8.202;2024-03-23T19:45:12;4.50;99.90
41060;DHT22;26811;53.160;8.202;2024-03-23T19:50:13;4.50;99.90
41060;DHT22;26811;53.160;8.202;2024-03-23T19:55:13;4.50;99.90
41060;DHT22;26811;53.160;8.202;2024-03-23T20:00:14;4.50;99.90
41060;DHT22;26811;53.160;8.202;2024-03-23T20:05:15;4.50;99.90
41060;DHT22;26811;53.160;8.202;2024-03-23T20:10:15;4.40;99.90
41060;DHT22;26811;53.160;8.202;2024-03-23T20:15:16;4.40;99.90
41060;DHT22;26811;53.160;8.202;2024-03-23T20:20:17;4.40;99.90
41060;DHT22;26811;53.160;8.202;2024-03-23T20:25:17;4.40;99.90
41060;DHT22;26811;53.160;8.202;2024-03-23T20:30:18;4.40;99.90
41060;DHT22;26811;53.160;8.202;2024-03-23T20:35:18;4.40;99.90
41060;DHT22;26811;53.160;8.202;2024-03-23T20:40:19;4.30;99.90
41060;DHT22;26811;53.160;8.202;2024-03-23T20:45:19;4.30;99.90
41060;DHT22;26811;53.160;8.202;2024-03-23T20:50:20;4.30;99.90
41060;DHT22;26811;53.160;8.202;2024-03-23T20:55:21;4.30;99.90
41060;DHT22;26811;53.160;8.202;2024-03-23T21:00:22;4.30;99.90
41060;DHT22;26811;53.160;8.202;2024-03-23T21:05:22;4.30;99.90
41060;DHT22;26811;53.160;8.202;2024-03-23T21:10:23;4.30;99.90
41060;DHT22;26811;53.160;8.202;2024-03-23T21:15:27;4.30;99.90
41060;DHT22;26811;53.160;8.202;2024-03-23T21:20:27;4.40;99.90
41060;DHT22;26811;53.160;8.202;2024-03-23T21:25:28;4.40;99.90
41060;DHT22;26811;53.160;8.202;2024-03-23T21:30:28;4.50;99.90
41060;DHT22;26811;53.160;8.202;2024-03-23T21:35:29;4.60;99.90
41060;DHT22;26811;53.160;8.202;2024-03-23T21:40:29;4.60;99.90
41060;DHT22;26811;53.160;8.202;2024-03-23T21:45:30;4.60;99.90
41060;DHT22;26811;53.160;8.202;2024-03-23T21:50:32;4.60;99.90
41060;DHT22;26811;53.160;8.202;2024-03-23T21:55:32;4.50;99.90
41060;DHT22;26811;53.160;8.202;2024-03-23T22:00:32;4.50;99.90
41060;DHT22;26811;53.160;8.202;2024-03-23T22:05:33;4.40;99.90
41060;DHT22;26811;53.160;8.202;2024-03-23T22:10:35;4.30;99.90
41060;DHT22;26811;53.160;8.202;2024-03-23T22:15:39;4.30;99.90
41060;DHT22;26811;53.160;8.202;2024-03-23T22:20:39;4.30;99.90
41060;DHT22;26811;53.160;8.202;2024-03-23T22:25:48;4.20;99.90
41060;DHT22;26811;53.160;8.202;2024-03-23T22:30:59;4.20;99.90
41060;DHT22;26811;53.160;8.202;2024-03-23T22:36:00;4.20;99.90
41060;DHT22;26811;53.160;8.202;2024-03-23T22:41:03;4.20;99.90
41060;DHT22;26811;53.160;8.202;2024-03-23T22:46:05;4.10;99.90
41060;DHT22;26811;53.160;8.202;2024-03-23T22:51:06;4.10;99.90
41060;DHT22;26811;53.160;8.202;2024-03-23T22:56:06;4.10;99.90
41060;DHT22;26811;53.160;8.202;2024-03-23T23:01:08;4.10;99.90
41060;DHT22;26811;53.160;8.202;2024-03-23T23:06:08;4.10;99.90
41060;DHT22;26811;53.160;8.202;2024-03-23T23:11:09;4.10;99.90
41060;DHT22;26811;53.160;8.202;2024-03-23T23:16:10;4.10;99.90
41060;DHT22;26811;53.160;8.202;2024-03-23T23:21:10;4.10;99.90
41060;DHT22;26811;53.160;8.202;2024-03-23T23:26:11;4.10;99.90
41060;DHT22;26811;53.160;8.202;2024-03-23T23:31:11;4.10;99.90
41060;DHT22;26811;53.160;8.202;2024-03-23T23:36:12;4.10;99.90
41060;DHT22;26811;53.160;8.202;2024-03-23T23:41:13;4.10;99.90
41060;DHT22;26811;53.160;8.202;2024-03-23T23:46:13;4.20;99.90
41060;DHT22;26811;53.160;8.202;2024-03-23T23:51:14;4.20;99.90
41060;DHT22;26811;53.160;8.202;2024-03-23T23:56:14;4.20;99.90
